sensor_id;sensor_type;location;lat;lon;timestamp;temperature;humidity
37158;DHT22;23050;51.776;22.638;2023-05-14T00:00:45;8.70;99.90
37158;DHT22;23050;51.776;22.638;2023-05-14T00:03:11;8.70;99.90
37158;DHT22;23050;51.776;22.638;2023-05-14T00:05:37;8.60;99.90
37158;DHT22;23050;51.776;22.638;2023-05-14T00:08:02;8.50;99.90
37158;DHT22;23050;51.776;22.638;2023-05-14T00:10:28;8.50;99.90
37158;DHT22;23050;51.776;22.638;2023-05-14T00:12:53;8.40;99.90
37158;DHT22;23050;51.776;22.638;2023-05-14T00:15:19;8.40;99.90
37158;DHT22;23050;51.776;22.638;2023-05-14T00:17:44;8.30;99.90
37158;DHT22;23050;51.776;22.638;2023-05-14T00:20:10;8.30;99.90
37158;DHT22;23050;51.776;22.638;2023-05-14T00:22:36;8.30;99.90
37158;DHT22;23050;51.776;22.638;2023-05-14T00:25:02;8.20;99.90
37158;DHT22;23050;51.776;22.638;2023-05-14T00:27:27;8.20;99.90
37158;DHT22;23050;51.776;22.638;2023-05-14T00:29:53;8.10;99.90
37158;DHT22;23050;51.776;22.638;2023-05-14T00:32:18;8.10;99.90
37158;DHT22;23050;51.776;22.638;2023-05-14T00:34:44;8.10;99.90
37158;DHT22;23050;51.776;22.638;2023-05-14T00:37:09;8.00;99.90
37158;DHT22;23050;51.776;22.638;2023-05-14T00:39:35;8.00;99.90
37158;DHT22;23050;51.776;22.638;2023-05-14T00:42:00;7.90;99.90
37158;DHT22;23050;51.776;22.638;2023-05-14T00:44:26;7.90;99.90
37158;DHT22;23050;51.776;22.638;2023-05-14T00:46:51;7.90;99.90
37158;DHT22;23050;51.776;22.638;2023-05-14T00:49:17;7.80;99.90
37158;DHT22;23050;51.776;22.638;2023-05-14T00:51:42;7.80;99.90
37158;DHT22;23050;51.776;22.638;2023-05-14T00:54:12;7.80;99.90
37158;DHT22;23050;51.776;22.638;2023-05-14T00:56:38;7.70;99.90
37158;DHT22;23050;51.776;22.638;2023-05-14T00:59:03;7.70;99.90
37158;DHT22;23050;51.776;22.638;2023-05-14T01:01:29;7.70;99.90
37158;DHT22;23050;51.776;22.638;2023-05-14T01:03:55;7.60;99.90
37158;DHT22;23050;51.776;22.638;2023-05-14T01:06:28;7.60;99.90
37158;DHT22;23050;51.776;22.638;2023-05-14T01:11:28;7.50;99.90
37158;DHT22;23050;51.776;22.638;2023-05-14T01:16:19;7.50;99.90
37158;DHT22;23050;51.776;22.638;2023-05-14T01:18:47;7.40;99.90
37158;DHT22;23050;51.776;22.638;2023-05-14T01:21:32;7.40;99.90
37158;DHT22;23050;51.776;22.638;2023-05-14T01:23:59;7.40;99.90
37158;DHT22;23050;51.776;22.638;2023-05-14T01:26:24;7.30;99.90
37158;DHT22;23050;51.776;22.638;2023-05-14T01:28:51;7.30;99.90
37158;DHT22;23050;51.776;22.638;2023-05-14T01:31:18;7.30;99.90
37158;DHT22;23050;51.776;22.638;2023-05-14T01:33:44;7.20;99.90
37158;DHT22;23050;51.776;22.638;2023-05-14T01:36:12;7.20;99.90
37158;DHT22;23050;51.776;22.638;2023-05-14T01:38:37;7.20;99.90
37158;DHT22;23050;51.776;22.638;2023-05-14T01:41:03;7.10;99.90
37158;DHT22;23050;51.776;22.638;2023-05-14T01:43:29;7.10;99.90
37158;DHT22;23050;51.776;22.638;2023-05-14T01:45:55;7.10;99.90
37158;DHT22;23050;51.776;22.638;2023-05-14T01:48:21;7.00;99.90
37158;DHT22;23050;51.776;22.638;2023-05-14T01:50:47;7.00;99.90
37158;DHT22;23050;51.776;22.638;2023-05-14T01:53:12;7.00;99.90
37158;DHT22;23050;51.776;22.638;2023-05-14T01:55:37;6.90;99.90
37158;DHT22;23050;51.776;22.638;2023-05-14T01:58:03;6.90;99.90
37158;DHT22;23050;51.776;22.638;2023-05-14T02:00:28;6.90;99.90
37158;DHT22;23050;51.776;22.638;2023-05-14T02:02:54;6.80;99.90
37158;DHT22;23050;51.776;22.638;2023-05-14T02:05:20;6.80;99.90
37158;DHT22;23050;51.776;22.638;2023-05-14T02:07:45;6.80;99.90
37158;DHT22;23050;51.776;22.638;2023-05-14T02:10:11;6.80;99.90
37158;DHT22;23050;51.776;22.638;2023-05-14T02:12:36;6.80;99.90
37158;DHT22;23050;51.776;22.638;2023-05-14T02:15:02;6.80;99.90
37158;DHT22;23050;51.776;22.638;2023-05-14T02:17:28;6.80;99.90
37158;DHT22;23050;51.776;22.638;2023-05-14T02:19:53;6.90;99.90
37158;DHT22;23050;51.776;22.638;2023-05-14T02:22:19;6.80;99.90
37158;DHT22;23050;51.776;22.638;2023-05-14T02:24:44;6.90;99.90
37158;DHT22;23050;51.776;22.638;2023-05-14T02:27:10;6.90;99.90
37158;DHT22;23050;51.776;22.638;2023-05-14T02:29:37;6.80;99.90
37158;DHT22;23050;51.776;22.638;2023-05-14T02:32:03;6.80;99.90
37158;DHT22;23050;51.776;22.638;2023-05-14T02:34:28;6.80;99.90
37158;DHT22;23050;51.776;22.638;2023-05-14T02:36:54;6.80;99.90
37158;DHT22;23050;51.776;22.638;2023-05-14T02:39:19;6.70;99.90
37158;DHT22;23050;51.776;22.638;2023-05-14T02:41:45;6.70;99.90
37158;DHT22;23050;51.776;22.638;2023-05-14T02:44:10;6.70;99.90
37158;DHT22;23050;51.776;22.638;2023-05-14T02:46:36;6.70;99.90
37158;DHT22;23050;51.776;22.638;2023-05-14T02:49:01;6.70;99.90
37158;DHT22;23050;51.776;22.638;2023-05-14T02:51:27;6.70;99.90
37158;DHT22;23050;51.776;22.638;2023-05-14T02:53:52;6.70;99.90
37158;DHT22;23050;51.776;22.638;2023-05-14T02:56:18;6.80;99.90
37158;DHT22;23050;51.776;22.638;2023-05-14T02:58:44;6.80;99.90
37158;DHT22;23050;51.776;22.638;2023-05-14T03:01:09;6.80;99.90
37158;DHT22;23050;51.776;22.638;2023-05-14T03:03:35;6.70;99.90
37158;DHT22;23050;51.776;22.638;2023-05-14T03:06:00;6.80;99.90
37158;DHT22;23050;51.776;22.638;2023-05-14T03:08:26;6.90;99.90
37158;DHT22;23050;51.776;22.638;2023-05-14T03:10:51;6.90;99.90
37158;DHT22;23050;51.776;22.638;2023-05-14T03:13:17;6.90;99.90
37158;DHT22;23050;51.776;22.638;2023-05-14T03:15:45;7.00;99.90
37158;DHT22;23050;51.776;22.638;2023-05-14T03:18:11;7.00;99.90
37158;DHT22;23050;51.776;22.638;2023-05-14T03:20:37;7.00;99.90
37158;DHT22;23050;51.776;22.638;2023-05-14T03:23:02;7.10;99.90
37158;DHT22;23050;51.776;22.638;2023-05-14T03:25:28;7.10;99.90
37158;DHT22;23050;51.776;22.638;2023-05-14T03:27:53;7.20;99.90
37158;DHT22;23050;51.776;22.638;2023-05-14T03:30:19;7.20;99.90
37158;DHT22;23050;51.776;22.638;2023-05-14T03:32:44;7.30;99.90
37158;DHT22;23050;51.776;22.638;2023-05-14T03:35:09;7.30;99.90
37158;DHT22;23050;51.776;22.638;2023-05-14T03:37:35;7.40;99.90
37158;DHT22;23050;51.776;22.638;2023-05-14T03:40:01;7.50;99.90
37158;DHT22;23050;51.776;22.638;2023-05-14T03:42:26;7.50;99.90
37158;DHT22;23050;51.776;22.638;2023-05-14T03:44:52;7.60;99.90
37158;DHT22;23050;51.776;22.638;2023-05-14T03:47:17;7.70;99.90
37158;DHT22;23050;51.776;22.638;2023-05-14T03:49:42;7.80;99.90
37158;DHT22;23050;51.776;22.638;2023-05-14T03:52:08;7.90;99.90
37158;DHT22;23050;51.776;22.638;2023-05-14T03:54:34;7.90;99.90
37158;DHT22;23050;51.776;22.638;2023-05-14T03:56:59;8.10;99.90
37158;DHT22;23050;51.776;22.638;2023-05-14T03:59:26;8.20;99.90
37158;DHT22;23050;51.776;22.638;2023-05-14T04:01:51;8.30;99.90
37158;DHT22;23050;51.776;22.638;2023-05-14T04:04:17;8.40;99.90
37158;DHT22;23050;51.776;22.638;2023-05-14T04:06:42;8.50;99.90
37158;DHT22;23050;51.776;22.638;2023-05-14T04:09:08;8.50;99.90
37158;DHT22;23050;51.776;22.638;2023-05-14T04:11:35;8.70;99.90
37158;DHT22;23050;51.776;22.638;2023-05-14T04:14:00;8.80;99.90
37158;DHT22;23050;51.776;22.638;2023-05-14T04:16:26;8.90;99.90
37158;DHT22;23050;51.776;22.638;2023-05-14T04:18:51;9.00;99.90
37158;DHT22;23050;51.776;22.638;2023-05-14T04:21:17;9.20;99.90
37158;DHT22;23050;51.776;22.638;2023-05-14T04:23:42;9.30;99.90
37158;DHT22;23050;51.776;22.638;2023-05-14T04:26:08;9.40;99.90
37158;DHT22;23050;51.776;22.638;2023-05-14T04:28:33;9.40;99.90
37158;DHT22;23050;51.776;22.638;2023-05-14T04:30:59;9.50;99.90
37158;DHT22;23050;51.776;22.638;2023-05-14T04:33:24;9.60;99.90
37158;DHT22;23050;51.776;22.638;2023-05-14T04:35:50;9.70;99.90
37158;DHT22;23050;51.776;22.638;2023-05-14T04:38:16;9.80;99.90
37158;DHT22;23050;51.776;22.638;2023-05-14T04:40:41;10.00;99.90
37158;DHT22;23050;51.776;22.638;2023-05-14T04:43:07;10.20;99.90
37158;DHT22;23050;51.776;22.638;2023-05-14T04:45:32;10.40;99.90
37158;DHT22;23050;51.776;22.638;2023-05-14T04:47:58;10.50;99.90
37158;DHT22;23050;51.776;22.638;2023-05-14T04:50:24;10.60;99.90
37158;DHT22;23050;51.776;22.638;2023-05-14T04:52:49;10.70;99.90
37158;DHT22;23050;51.776;22.638;2023-05-14T04:55:15;10.80;99.90
37158;DHT22;23050;51.776;22.638;2023-05-14T04:57:41;11.00;99.90
37158;DHT22;23050;51.776;22.638;2023-05-14T05:00:06;11.10;99.90
37158;DHT22;23050;51.776;22.638;2023-05-14T05:02:33;11.30;99.90
37158;DHT22;23050;51.776;22.638;2023-05-14T05:04:59;11.40;99.90
37158;DHT22;23050;51.776;22.638;2023-05-14T05:07:24;11.50;99.90
37158;DHT22;23050;51.776;22.638;2023-05-14T05:09:50;11.80;99.90
37158;DHT22;23050;51.776;22.638;2023-05-14T05:12:15;12.20;99.90
37158;DHT22;23050;51.776;22.638;2023-05-14T05:14:41;13.20;99.90
37158;DHT22;23050;51.776;22.638;2023-05-14T05:17:06;14.00;99.20
37158;DHT22;23050;51.776;22.638;2023-05-14T05:19:32;14.60;84.30
37158;DHT22;23050;51.776;22.638;2023-05-14T05:21:57;14.90;83.10
37158;DHT22;23050;51.776;22.638;2023-05-14T05:24:23;15.40;78.80
37158;DHT22;23050;51.776;22.638;2023-05-14T05:26:48;15.80;63.60
37158;DHT22;23050;51.776;22.638;2023-05-14T05:29:16;16.30;40.70
37158;DHT22;23050;51.776;22.638;2023-05-14T05:31:41;17.10;13.30
37158;DHT22;23050;51.776;22.638;2023-05-14T05:34:07;17.50;1.00
37158;DHT22;23050;51.776;22.638;2023-05-14T05:36:32;17.60;1.00
37158;DHT22;23050;51.776;22.638;2023-05-14T05:38:58;18.10;1.00
37158;DHT22;23050;51.776;22.638;2023-05-14T05:41:23;18.40;1.00
37158;DHT22;23050;51.776;22.638;2023-05-14T05:43:49;18.60;1.00
37158;DHT22;23050;51.776;22.638;2023-05-14T05:46:14;18.80;1.00
37158;DHT22;23050;51.776;22.638;2023-05-14T05:48:40;19.10;1.00
37158;DHT22;23050;51.776;22.638;2023-05-14T05:51:05;19.10;1.00
37158;DHT22;23050;51.776;22.638;2023-05-14T05:53:31;18.70;1.00
37158;DHT22;23050;51.776;22.638;2023-05-14T05:55:56;18.70;1.00
37158;DHT22;23050;51.776;22.638;2023-05-14T05:58:22;18.90;1.00
37158;DHT22;23050;51.776;22.638;2023-05-14T06:00:47;18.80;1.00
37158;DHT22;23050;51.776;22.638;2023-05-14T06:03:13;19.20;1.00
37158;DHT22;23050;51.776;22.638;2023-05-14T06:05:38;19.70;1.00
37158;DHT22;23050;51.776;22.638;2023-05-14T06:08:04;20.10;1.00
37158;DHT22;23050;51.776;22.638;2023-05-14T06:10:29;20.50;1.00
37158;DHT22;23050;51.776;22.638;2023-05-14T06:12:55;20.60;1.00
37158;DHT22;23050;51.776;22.638;2023-05-14T06:15:21;20.40;1.00
37158;DHT22;23050;51.776;22.638;2023-05-14T06:17:46;21.40;1.00
37158;DHT22;23050;51.776;22.638;2023-05-14T06:20:12;22.20;1.00
37158;DHT22;23050;51.776;22.638;2023-05-14T06:22:37;23.10;1.00
37158;DHT22;23050;51.776;22.638;2023-05-14T06:25:03;23.70;1.00
37158;DHT22;23050;51.776;22.638;2023-05-14T06:27:28;24.60;1.00
37158;DHT22;23050;51.776;22.638;2023-05-14T06:29:54;25.60;1.00
37158;DHT22;23050;51.776;22.638;2023-05-14T06:32:19;26.30;1.00
37158;DHT22;23050;51.776;22.638;2023-05-14T06:34:45;26.50;1.00
37158;DHT22;23050;51.776;22.638;2023-05-14T06:37:10;26.60;1.00
37158;DHT22;23050;51.776;22.638;2023-05-14T06:39:36;27.70;1.00
37158;DHT22;23050;51.776;22.638;2023-05-14T06:42:02;27.40;1.00
37158;DHT22;23050;51.776;22.638;2023-05-14T06:44:27;26.30;1.00
37158;DHT22;23050;51.776;22.638;2023-05-14T06:46:53;25.40;1.00
37158;DHT22;23050;51.776;22.638;2023-05-14T06:49:18;25.10;1.00
37158;DHT22;23050;51.776;22.638;2023-05-14T06:51:44;24.50;1.00
37158;DHT22;23050;51.776;22.638;2023-05-14T06:54:10;24.00;1.00
37158;DHT22;23050;51.776;22.638;2023-05-14T06:56:35;23.80;1.00
37158;DHT22;23050;51.776;22.638;2023-05-14T06:59:01;24.20;1.00
37158;DHT22;23050;51.776;22.638;2023-05-14T07:01:26;24.00;1.00
37158;DHT22;23050;51.776;22.638;2023-05-14T07:03:52;23.20;1.00
37158;DHT22;23050;51.776;22.638;2023-05-14T07:06:17;23.00;1.00
37158;DHT22;23050;51.776;22.638;2023-05-14T07:08:43;22.90;1.00
37158;DHT22;23050;51.776;22.638;2023-05-14T07:11:11;22.80;1.00
37158;DHT22;23050;51.776;22.638;2023-05-14T07:13:40;22.90;1.00
37158;DHT22;23050;51.776;22.638;2023-05-14T07:16:06;22.70;1.00
37158;DHT22;23050;51.776;22.638;2023-05-14T07:18:33;23.20;1.00
37158;DHT22;23050;51.776;22.638;2023-05-14T07:20:58;23.90;1.00
37158;DHT22;23050;51.776;22.638;2023-05-14T07:23:24;24.20;1.00
37158;DHT22;23050;51.776;22.638;2023-05-14T07:25:50;24.00;1.00
37158;DHT22;23050;51.776;22.638;2023-05-14T07:28:16;24.30;1.00
37158;DHT22;23050;51.776;22.638;2023-05-14T07:30:41;24.50;1.00
37158;DHT22;23050;51.776;22.638;2023-05-14T07:33:07;24.70;1.00
37158;DHT22;23050;51.776;22.638;2023-05-14T07:35:32;24.60;1.00
37158;DHT22;23050;51.776;22.638;2023-05-14T07:37:58;24.60;1.00
37158;DHT22;23050;51.776;22.638;2023-05-14T07:40:23;24.50;1.00
37158;DHT22;23050;51.776;22.638;2023-05-14T07:42:49;24.90;1.00
37158;DHT22;23050;51.776;22.638;2023-05-14T07:45:14;24.80;1.00
37158;DHT22;23050;51.776;22.638;2023-05-14T07:47:40;25.00;1.00
37158;DHT22;23050;51.776;22.638;2023-05-14T07:50:06;25.40;1.00
37158;DHT22;23050;51.776;22.638;2023-05-14T07:52:31;24.70;1.00
37158;DHT22;23050;51.776;22.638;2023-05-14T07:54:57;25.10;1.00
37158;DHT22;23050;51.776;22.638;2023-05-14T07:57:22;26.30;1.00
37158;DHT22;23050;51.776;22.638;2023-05-14T07:59:48;27.00;1.00
37158;DHT22;23050;51.776;22.638;2023-05-14T08:02:13;26.50;1.00
37158;DHT22;23050;51.776;22.638;2023-05-14T08:04:40;27.20;1.00
37158;DHT22;23050;51.776;22.638;2023-05-14T08:07:07;27.40;1.00
37158;DHT22;23050;51.776;22.638;2023-05-14T08:09:33;27.30;1.00
37158;DHT22;23050;51.776;22.638;2023-05-14T08:11:58;27.30;1.00
37158;DHT22;23050;51.776;22.638;2023-05-14T08:14:24;26.90;1.00
37158;DHT22;23050;51.776;22.638;2023-05-14T08:16:50;26.50;1.00
37158;DHT22;23050;51.776;22.638;2023-05-14T08:19:15;27.10;1.00
37158;DHT22;23050;51.776;22.638;2023-05-14T08:21:40;28.10;1.00
37158;DHT22;23050;51.776;22.638;2023-05-14T08:24:06;29.80;1.00
37158;DHT22;23050;51.776;22.638;2023-05-14T08:26:31;31.10;1.00
37158;DHT22;23050;51.776;22.638;2023-05-14T08:28:57;30.60;1.00
37158;DHT22;23050;51.776;22.638;2023-05-14T08:31:22;28.90;1.00
37158;DHT22;23050;51.776;22.638;2023-05-14T08:33:48;28.10;1.00
37158;DHT22;23050;51.776;22.638;2023-05-14T08:36:13;28.50;1.00
37158;DHT22;23050;51.776;22.638;2023-05-14T08:38:39;28.40;1.00
37158;DHT22;23050;51.776;22.638;2023-05-14T08:41:05;27.80;1.00
37158;DHT22;23050;51.776;22.638;2023-05-14T08:43:37;27.60;1.00
37158;DHT22;23050;51.776;22.638;2023-05-14T08:46:06;26.70;1.00
37158;DHT22;23050;51.776;22.638;2023-05-14T08:48:32;26.30;1.00
37158;DHT22;23050;51.776;22.638;2023-05-14T08:51:00;26.40;1.00
37158;DHT22;23050;51.776;22.638;2023-05-14T08:53:26;27.80;1.00
37158;DHT22;23050;51.776;22.638;2023-05-14T08:55:51;28.30;1.00
37158;DHT22;23050;51.776;22.638;2023-05-14T08:58:18;28.10;1.00
37158;DHT22;23050;51.776;22.638;2023-05-14T09:00:43;28.70;1.00
37158;DHT22;23050;51.776;22.638;2023-05-14T09:03:09;29.40;1.00
37158;DHT22;23050;51.776;22.638;2023-05-14T09:05:35;29.70;1.00
37158;DHT22;23050;51.776;22.638;2023-05-14T09:08:01;29.00;1.00
37158;DHT22;23050;51.776;22.638;2023-05-14T09:10:26;29.60;1.00
37158;DHT22;23050;51.776;22.638;2023-05-14T09:12:52;29.60;1.00
37158;DHT22;23050;51.776;22.638;2023-05-14T09:15:17;29.90;1.00
37158;DHT22;23050;51.776;22.638;2023-05-14T09:17:44;30.00;1.00
37158;DHT22;23050;51.776;22.638;2023-05-14T09:20:12;29.50;1.00
37158;DHT22;23050;51.776;22.638;2023-05-14T09:22:37;28.10;1.00
37158;DHT22;23050;51.776;22.638;2023-05-14T09:25:04;27.90;1.00
37158;DHT22;23050;51.776;22.638;2023-05-14T09:27:30;27.80;1.00
37158;DHT22;23050;51.776;22.638;2023-05-14T09:30:03;27.80;1.00
37158;DHT22;23050;51.776;22.638;2023-05-14T09:32:33;27.60;1.00
37158;DHT22;23050;51.776;22.638;2023-05-14T09:34:59;28.10;1.00
37158;DHT22;23050;51.776;22.638;2023-05-14T09:37:35;27.40;1.00
37158;DHT22;23050;51.776;22.638;2023-05-14T09:40:04;28.10;1.00
37158;DHT22;23050;51.776;22.638;2023-05-14T09:42:30;28.90;1.00
37158;DHT22;23050;51.776;22.638;2023-05-14T09:44:55;27.70;1.00
37158;DHT22;23050;51.776;22.638;2023-05-14T09:47:21;27.40;1.00
37158;DHT22;23050;51.776;22.638;2023-05-14T09:49:47;27.90;1.00
37158;DHT22;23050;51.776;22.638;2023-05-14T09:52:12;28.10;1.00
37158;DHT22;23050;51.776;22.638;2023-05-14T09:54:38;27.30;1.00
37158;DHT22;23050;51.776;22.638;2023-05-14T09:57:04;26.90;1.00
37158;DHT22;23050;51.776;22.638;2023-05-14T09:59:30;27.10;1.00
37158;DHT22;23050;51.776;22.638;2023-05-14T10:01:55;26.10;1.00
37158;DHT22;23050;51.776;22.638;2023-05-14T10:04:21;25.80;1.00
37158;DHT22;23050;51.776;22.638;2023-05-14T10:06:47;26.30;1.00
37158;DHT22;23050;51.776;22.638;2023-05-14T10:09:15;27.00;1.00
37158;DHT22;23050;51.776;22.638;2023-05-14T10:11:41;26.50;1.00
37158;DHT22;23050;51.776;22.638;2023-05-14T10:14:10;26.50;1.00
37158;DHT22;23050;51.776;22.638;2023-05-14T10:16:52;25.90;1.00
37158;DHT22;23050;51.776;22.638;2023-05-14T10:19:19;25.70;1.00
37158;DHT22;23050;51.776;22.638;2023-05-14T10:21:46;25.30;1.00
37158;DHT22;23050;51.776;22.638;2023-05-14T10:24:13;24.90;1.00
37158;DHT22;23050;51.776;22.638;2023-05-14T10:26:39;25.10;1.00
37158;DHT22;23050;51.776;22.638;2023-05-14T10:29:06;25.50;1.00
37158;DHT22;23050;51.776;22.638;2023-05-14T10:31:46;25.60;1.00
37158;DHT22;23050;51.776;22.638;2023-05-14T10:37:01;25.00;1.00
37158;DHT22;23050;51.776;22.638;2023-05-14T10:42:07;24.20;1.00
37158;DHT22;23050;51.776;22.638;2023-05-14T10:44:34;24.50;1.00
37158;DHT22;23050;51.776;22.638;2023-05-14T10:47:05;24.90;1.00
37158;DHT22;23050;51.776;22.638;2023-05-14T10:49:32;24.60;1.00
37158;DHT22;23050;51.776;22.638;2023-05-14T10:51:58;24.70;1.00
37158;DHT22;23050;51.776;22.638;2023-05-14T10:54:23;25.00;1.00
37158;DHT22;23050;51.776;22.638;2023-05-14T10:56:51;24.60;1.00
37158;DHT22;23050;51.776;22.638;2023-05-14T10:59:17;24.30;1.00
37158;DHT22;23050;51.776;22.638;2023-05-14T11:01:44;24.40;1.00
37158;DHT22;23050;51.776;22.638;2023-05-14T11:04:22;23.90;1.00
37158;DHT22;23050;51.776;22.638;2023-05-14T11:06:47;23.60;1.00
37158;DHT22;23050;51.776;22.638;2023-05-14T11:09:13;23.60;1.00
37158;DHT22;23050;51.776;22.638;2023-05-14T11:11:41;23.90;1.00
37158;DHT22;23050;51.776;22.638;2023-05-14T11:14:06;24.20;1.00
37158;DHT22;23050;51.776;22.638;2023-05-14T11:16:32;24.20;1.00
37158;DHT22;23050;51.776;22.638;2023-05-14T11:19:00;24.10;1.00
37158;DHT22;23050;51.776;22.638;2023-05-14T11:21:27;24.20;1.00
37158;DHT22;23050;51.776;22.638;2023-05-14T11:23:53;24.00;1.00
37158;DHT22;23050;51.776;22.638;2023-05-14T11:26:19;23.70;1.00
37158;DHT22;23050;51.776;22.638;2023-05-14T11:28:45;23.90;1.00
37158;DHT22;23050;51.776;22.638;2023-05-14T11:31:11;24.40;1.00
37158;DHT22;23050;51.776;22.638;2023-05-14T11:33:41;24.90;1.00
37158;DHT22;23050;51.776;22.638;2023-05-14T11:36:06;24.70;1.00
37158;DHT22;23050;51.776;22.638;2023-05-14T11:38:32;24.40;1.00
37158;DHT22;23050;51.776;22.638;2023-05-14T11:40:58;24.70;1.00
37158;DHT22;23050;51.776;22.638;2023-05-14T11:43:24;24.50;1.00
37158;DHT22;23050;51.776;22.638;2023-05-14T11:45:50;24.50;1.00
37158;DHT22;23050;51.776;22.638;2023-05-14T11:48:17;24.30;1.00
37158;DHT22;23050;51.776;22.638;2023-05-14T11:50:45;24.20;1.00
37158;DHT22;23050;51.776;22.638;2023-05-14T11:53:14;24.50;1.00
37158;DHT22;23050;51.776;22.638;2023-05-14T11:55:44;24.20;1.00
37158;DHT22;23050;51.776;22.638;2023-05-14T11:58:10;24.20;1.00
37158;DHT22;23050;51.776;22.638;2023-05-14T12:00:37;24.40;1.00
37158;DHT22;23050;51.776;22.638;2023-05-14T12:03:02;24.20;1.00
37158;DHT22;23050;51.776;22.638;2023-05-14T12:05:28;24.40;1.00
37158;DHT22;23050;51.776;22.638;2023-05-14T12:07:53;24.50;1.00
37158;DHT22;23050;51.776;22.638;2023-05-14T12:10:20;24.20;1.00
37158;DHT22;23050;51.776;22.638;2023-05-14T12:12:46;24.40;1.00
37158;DHT22;23050;51.776;22.638;2023-05-14T12:15:12;24.40;1.00
37158;DHT22;23050;51.776;22.638;2023-05-14T12:17:37;24.70;1.00
37158;DHT22;23050;51.776;22.638;2023-05-14T12:20:04;24.30;1.00
37158;DHT22;23050;51.776;22.638;2023-05-14T12:22:32;24.60;1.00
37158;DHT22;23050;51.776;22.638;2023-05-14T12:24:58;24.70;1.00
37158;DHT22;23050;51.776;22.638;2023-05-14T12:27:24;24.80;1.00
37158;DHT22;23050;51.776;22.638;2023-05-14T12:30:00;24.70;1.00
37158;DHT22;23050;51.776;22.638;2023-05-14T12:32:27;24.60;1.00
37158;DHT22;23050;51.776;22.638;2023-05-14T12:34:55;24.40;1.00
37158;DHT22;23050;51.776;22.638;2023-05-14T12:37:20;24.50;1.00
37158;DHT22;23050;51.776;22.638;2023-05-14T12:39:46;24.30;1.00
37158;DHT22;23050;51.776;22.638;2023-05-14T12:42:13;24.20;1.00
37158;DHT22;23050;51.776;22.638;2023-05-14T12:44:38;23.90;1.00
37158;DHT22;23050;51.776;22.638;2023-05-14T12:47:04;24.10;1.00
37158;DHT22;23050;51.776;22.638;2023-05-14T12:49:29;24.40;1.00
37158;DHT22;23050;51.776;22.638;2023-05-14T12:51:55;24.80;1.00
37158;DHT22;23050;51.776;22.638;2023-05-14T12:54:20;24.70;1.00
37158;DHT22;23050;51.776;22.638;2023-05-14T12:56:46;24.90;1.00
37158;DHT22;23050;51.776;22.638;2023-05-14T12:59:11;24.90;1.00
37158;DHT22;23050;51.776;22.638;2023-05-14T13:01:37;24.00;1.00
37158;DHT22;23050;51.776;22.638;2023-05-14T13:04:04;23.90;1.00
37158;DHT22;23050;51.776;22.638;2023-05-14T13:06:30;24.30;1.00
37158;DHT22;23050;51.776;22.638;2023-05-14T13:08:56;24.30;1.00
37158;DHT22;23050;51.776;22.638;2023-05-14T13:11:24;24.40;1.00
37158;DHT22;23050;51.776;22.638;2023-05-14T13:13:49;24.20;1.00
37158;DHT22;23050;51.776;22.638;2023-05-14T13:16:15;24.50;1.00
37158;DHT22;23050;51.776;22.638;2023-05-14T13:18:41;24.50;1.00
37158;DHT22;23050;51.776;22.638;2023-05-14T13:21:06;24.70;1.00
37158;DHT22;23050;51.776;22.638;2023-05-14T13:23:32;24.50;1.00
37158;DHT22;23050;51.776;22.638;2023-05-14T13:25:58;24.40;1.00
37158;DHT22;23050;51.776;22.638;2023-05-14T13:28:23;24.60;1.00
37158;DHT22;23050;51.776;22.638;2023-05-14T13:31:02;24.40;1.00
37158;DHT22;23050;51.776;22.638;2023-05-14T13:33:27;24.10;1.00
37158;DHT22;23050;51.776;22.638;2023-05-14T13:35:54;24.20;1.00
37158;DHT22;23050;51.776;22.638;2023-05-14T13:38:19;24.20;1.00
37158;DHT22;23050;51.776;22.638;2023-05-14T13:40:45;24.00;1.00
37158;DHT22;23050;51.776;22.638;2023-05-14T13:43:10;24.00;1.00
37158;DHT22;23050;51.776;22.638;2023-05-14T13:45:36;24.10;1.00
37158;DHT22;23050;51.776;22.638;2023-05-14T13:48:01;24.20;1.00
37158;DHT22;23050;51.776;22.638;2023-05-14T13:50:27;24.00;1.00
37158;DHT22;23050;51.776;22.638;2023-05-14T13:52:52;23.60;1.00
37158;DHT22;23050;51.776;22.638;2023-05-14T13:55:18;23.40;1.00
37158;DHT22;23050;51.776;22.638;2023-05-14T13:57:43;23.30;1.00
37158;DHT22;23050;51.776;22.638;2023-05-14T14:00:09;23.50;1.00
37158;DHT22;23050;51.776;22.638;2023-05-14T14:02:35;23.80;1.00
37158;DHT22;23050;51.776;22.638;2023-05-14T14:05:00;23.90;1.00
37158;DHT22;23050;51.776;22.638;2023-05-14T14:07:26;24.10;1.00
37158;DHT22;23050;51.776;22.638;2023-05-14T14:09:51;23.80;1.00
37158;DHT22;23050;51.776;22.638;2023-05-14T14:12:17;23.60;1.00
37158;DHT22;23050;51.776;22.638;2023-05-14T14:14:42;23.70;1.00
37158;DHT22;23050;51.776;22.638;2023-05-14T14:17:08;23.70;1.00
37158;DHT22;23050;51.776;22.638;2023-05-14T14:19:33;23.80;1.00
37158;DHT22;23050;51.776;22.638;2023-05-14T14:21:59;24.00;1.00
37158;DHT22;23050;51.776;22.638;2023-05-14T14:24:24;24.20;1.00
37158;DHT22;23050;51.776;22.638;2023-05-14T14:26:50;23.80;1.00
37158;DHT22;23050;51.776;22.638;2023-05-14T14:29:15;23.90;1.00
37158;DHT22;23050;51.776;22.638;2023-05-14T14:31:41;24.00;1.00
37158;DHT22;23050;51.776;22.638;2023-05-14T14:34:07;23.80;1.00
37158;DHT22;23050;51.776;22.638;2023-05-14T14:36:33;23.60;1.00
37158;DHT22;23050;51.776;22.638;2023-05-14T14:38:58;23.60;1.00
37158;DHT22;23050;51.776;22.638;2023-05-14T14:41:24;23.50;1.00
37158;DHT22;23050;51.776;22.638;2023-05-14T14:43:50;23.70;1.00
37158;DHT22;23050;51.776;22.638;2023-05-14T14:46:16;23.80;1.00
37158;DHT22;23050;51.776;22.638;2023-05-14T14:48:41;23.50;1.00
37158;DHT22;23050;51.776;22.638;2023-05-14T14:51:08;23.30;1.00
37158;DHT22;23050;51.776;22.638;2023-05-14T14:53:34;23.20;1.00
37158;DHT22;23050;51.776;22.638;2023-05-14T14:56:00;23.20;1.00
37158;DHT22;23050;51.776;22.638;2023-05-14T14:58:26;23.30;1.00
37158;DHT22;23050;51.776;22.638;2023-05-14T15:00:52;23.30;1.00
37158;DHT22;23050;51.776;22.638;2023-05-14T15:03:18;23.50;1.00
37158;DHT22;23050;51.776;22.638;2023-05-14T15:05:44;23.50;1.00
37158;DHT22;23050;51.776;22.638;2023-05-14T15:08:09;23.60;1.00
37158;DHT22;23050;51.776;22.638;2023-05-14T15:10:35;23.50;1.00
37158;DHT22;23050;51.776;22.638;2023-05-14T15:13:02;23.50;1.00
37158;DHT22;23050;51.776;22.638;2023-05-14T15:15:28;23.20;1.00
37158;DHT22;23050;51.776;22.638;2023-05-14T15:17:54;23.10;1.00
37158;DHT22;23050;51.776;22.638;2023-05-14T15:20:20;23.10;1.00
37158;DHT22;23050;51.776;22.638;2023-05-14T15:22:45;23.10;1.00
37158;DHT22;23050;51.776;22.638;2023-05-14T15:25:11;23.10;1.00
37158;DHT22;23050;51.776;22.638;2023-05-14T15:27:36;23.20;1.00
37158;DHT22;23050;51.776;22.638;2023-05-14T15:30:02;23.20;1.00
37158;DHT22;23050;51.776;22.638;2023-05-14T15:32:28;23.00;1.00